createdAt,value
2022-12-25T00:04:08.515Z,6.52
2022-12-25T00:09:14.883Z,6.37
2022-12-25T00:14:18.355Z,6.34
2022-12-25T00:19:20.031Z,6.32
2022-12-25T00:24:21.756Z,6.36
2022-12-25T00:29:23.468Z,6.46
2022-12-25T00:34:26.779Z,6.55
2022-12-25T00:39:28.571Z,6.60
2022-12-25T00:44:30.531Z,6.67
2022-12-25T00:49:32.406Z,6.70
2022-12-25T00:54:34.312Z,6.64
2022-12-25T00:59:35.966Z,6.49
2022-12-25T01:04:37.734Z,6.30
2022-12-25T01:09:58.446Z,6.17
2022-12-25T01:15:00.245Z,6.16
2022-12-25T01:20:02.515Z,6.25
2022-12-25T01:25:06.388Z,6.36
2022-12-25T01:30:09.005Z,6.50
2022-12-25T01:35:12.079Z,6.62
2022-12-25T01:40:14.127Z,6.73
2022-12-25T01:45:36.247Z,6.83
2022-12-25T01:50:42.382Z,6.89
2022-12-25T01:55:48.068Z,6.96
2022-12-25T02:00:51.507Z,7.01
2022-12-25T02:05:54.744Z,7.00
2022-12-25T02:10:56.539Z,6.94
2022-12-25T02:16:08.673Z,6.91
2022-12-25T02:21:22.709Z,6.95
2022-12-25T02:26:45.833Z,7.02
2022-12-25T02:32:05.763Z,7.10
2022-12-25T02:37:14.644Z,7.17
2022-12-25T02:42:47.206Z,7.19
2022-12-25T02:48:08.005Z,7.20
2022-12-25T02:53:29.488Z,7.20
2022-12-25T02:58:53.117Z,7.15
2022-12-25T03:04:16.920Z,7.14
2022-12-25T03:09:43.415Z,7.17
2022-12-25T03:15:03.952Z,7.20
2022-12-25T03:20:25.675Z,7.20
2022-12-25T03:25:47.108Z,7.17
2022-12-25T03:31:14.248Z,7.17
2022-12-25T03:36:31.006Z,7.16
2022-12-25T03:42:06.651Z,7.15
2022-12-25T03:47:34.926Z,7.11
2022-12-25T03:52:57.159Z,7.06
2022-12-25T03:58:17.849Z,6.99
2022-12-25T04:03:38.685Z,6.91
2022-12-25T04:08:59.363Z,6.87
2022-12-25T04:14:19.773Z,6.86
2022-12-25T04:19:40.376Z,6.87
2022-12-25T04:25:00.942Z,6.89
2022-12-25T04:30:21.365Z,6.92
2022-12-25T04:35:41.865Z,6.92
2022-12-25T04:40:43.849Z,6.85
2022-12-25T04:45:52.922Z,6.71
2022-12-25T04:50:55.145Z,6.51
2022-12-25T04:56:03.205Z,6.31
2022-12-25T05:01:05.819Z,6.13
2022-12-25T05:06:07.660Z,5.98
2022-12-25T05:11:12.583Z,5.83
2022-12-25T05:16:17.739Z,5.69
2022-12-25T05:21:20.094Z,5.58
2022-12-25T05:26:24.634Z,5.49
2022-12-25T05:31:26.388Z,5.40
2022-12-25T05:36:28.352Z,5.30
2022-12-25T05:41:34.253Z,5.19
2022-12-25T05:46:36.660Z,5.05
2022-12-25T05:51:38.556Z,4.91
2022-12-25T05:56:40.249Z,4.76
2022-12-25T06:01:42.339Z,4.62
2022-12-25T06:06:44.307Z,4.46
2022-12-25T06:11:46.001Z,4.37
2022-12-25T06:16:52.482Z,4.33
2022-12-25T06:21:55.717Z,4.30
2022-12-25T06:26:57.482Z,4.25
2022-12-25T06:31:59.295Z,4.24
2022-12-25T06:37:01.064Z,4.19
2022-12-25T06:42:03.308Z,4.13
2022-12-25T06:47:05.906Z,4.09
2022-12-25T06:52:07.731Z,4.09
2022-12-25T06:57:09.488Z,4.08
2022-12-25T07:02:19.616Z,4.05
2022-12-25T07:07:23.022Z,4.11
2022-12-25T07:12:24.915Z,4.17
2022-12-25T07:17:26.618Z,4.28
2022-12-25T07:22:30.152Z,4.38
2022-12-25T07:27:31.919Z,4.45
2022-12-25T07:32:33.661Z,4.57
2022-12-25T07:37:35.514Z,4.70
2022-12-25T07:42:37.209Z,4.85
2022-12-25T07:47:39.753Z,5.01
2022-12-25T07:52:43.829Z,5.14
2022-12-25T07:57:45.690Z,5.28
2022-12-25T08:03:09.511Z,5.43
2022-12-25T08:08:11.362Z,5.61
2022-12-25T08:13:14.790Z,5.78
2022-12-25T08:18:16.839Z,5.96
2022-12-25T08:23:18.530Z,6.13
2022-12-25T08:28:20.165Z,6.29
2022-12-25T08:33:21.995Z,6.44
2022-12-25T08:38:23.767Z,6.59
2022-12-25T08:43:25.424Z,6.76
2022-12-25T08:48:27.739Z,6.90
2022-12-25T08:53:29.515Z,7.04
2022-12-25T08:58:31.487Z,7.20
2022-12-25T09:03:34.122Z,7.38
2022-12-25T09:08:38.822Z,7.55
2022-12-25T09:13:42.807Z,7.72
2022-12-25T09:18:44.649Z,7.92
2022-12-25T09:23:46.392Z,8.07
2022-12-25T09:28:51.840Z,8.25
2022-12-25T09:33:58.099Z,8.43
2022-12-25T09:38:59.802Z,8.58
2022-12-25T09:44:11.408Z,8.73
2022-12-25T09:49:22.687Z,8.87
2022-12-25T09:54:46.142Z,9.07
2022-12-25T09:59:47.832Z,9.23
2022-12-25T10:05:11.106Z,9.36
2022-12-25T10:10:46.286Z,9.54
2022-12-25T10:16:17.293Z,9.74
2022-12-25T10:21:19.946Z,9.92
2022-12-25T10:26:25.237Z,10.08
2022-12-25T10:31:30.355Z,10.29
2022-12-25T10:36:33.394Z,10.45
2022-12-25T10:41:59.912Z,10.61
2022-12-25T10:47:04.485Z,10.79
2022-12-25T10:52:20.943Z,10.92
2022-12-25T10:57:25.361Z,11.03
2022-12-25T11:02:31.460Z,11.22
2022-12-25T11:07:46.472Z,11.48
2022-12-25T11:12:48.434Z,11.60
2022-12-25T11:17:50.144Z,11.63
2022-12-25T11:22:51.813Z,11.69
2022-12-25T11:27:59.045Z,11.77
2022-12-25T11:33:09.894Z,11.82
2022-12-25T11:38:11.602Z,11.96
2022-12-25T11:43:18.292Z,12.10
2022-12-25T11:48:28.151Z,12.20
2022-12-25T11:53:44.038Z,12.23
2022-12-25T11:58:52.255Z,12.27
2022-12-25T12:03:55.220Z,12.23
2022-12-25T12:09:14.551Z,12.24
2022-12-25T12:14:19.218Z,12.21
2022-12-25T12:19:31.475Z,12.18
2022-12-25T12:24:41.091Z,12.19
2022-12-25T12:29:50.053Z,12.18
2022-12-25T12:34:51.804Z,12.23
2022-12-25T12:39:55.111Z,12.26
2022-12-25T12:45:06.524Z,12.32
2022-12-25T12:50:29.065Z,12.39
2022-12-25T12:55:35.399Z,12.45
2022-12-25T13:01:02.846Z,12.46
2022-12-25T13:06:33.700Z,12.41
2022-12-25T13:11:41.277Z,12.27
2022-12-25T13:16:45.493Z,12.21
2022-12-25T13:22:02.763Z,12.17
2022-12-25T13:27:32.576Z,12.10
2022-12-25T13:32:35.006Z,11.99
2022-12-25T13:37:37.116Z,11.95
2022-12-25T13:42:41.863Z,11.85
2022-12-25T13:47:48.661Z,11.81
2022-12-25T13:52:57.362Z,11.79
2022-12-25T13:58:02.399Z,11.71
2022-12-25T14:03:14.020Z,11.64
2022-12-25T14:08:21.792Z,11.52
2022-12-25T14:13:26.003Z,11.41
2022-12-25T14:18:29.892Z,11.28
2022-12-25T14:23:43.035Z,11.20
2022-12-25T14:28:50.432Z,11.06
2022-12-25T14:33:54.200Z,10.92
2022-12-25T14:38:59.042Z,10.70
2022-12-25T14:44:04.013Z,10.46
2022-12-25T14:49:20.951Z,10.24
2022-12-25T14:54:23.548Z,9.98
2022-12-25T14:59:26.892Z,9.65
2022-12-25T15:04:29.792Z,9.39
2022-12-25T15:09:32.118Z,9.21
2022-12-25T15:14:36.617Z,9.04
2022-12-25T15:19:38.965Z,8.84
2022-12-25T15:24:40.906Z,8.64
2022-12-25T15:35:06.836Z,8.47
2022-12-25T15:40:11.811Z,8.45
2022-12-25T15:45:22.233Z,8.47
2022-12-25T15:50:24.571Z,8.50
2022-12-25T15:55:26.333Z,8.51
2022-12-25T16:00:28.031Z,8.53
2022-12-25T16:05:29.757Z,8.55
2022-12-25T16:10:36.773Z,8.57
2022-12-25T16:15:46.344Z,8.62
2022-12-25T16:20:48.113Z,8.67
2022-12-25T16:25:49.893Z,8.70
2022-12-25T16:30:51.557Z,8.70
2022-12-25T16:35:53.376Z,8.70
2022-12-25T16:40:57.975Z,8.67
2022-12-25T16:45:59.790Z,8.61
2022-12-25T16:51:08.200Z,8.58
2022-12-25T16:56:16.189Z,8.50
2022-12-25T17:01:21.263Z,8.33
2022-12-25T17:06:25.709Z,8.06
2022-12-25T17:11:29.957Z,7.98
2022-12-25T17:16:37.231Z,7.90
2022-12-25T17:21:39.126Z,7.75
2022-12-25T17:26:41.652Z,7.69
2022-12-25T17:31:43.440Z,7.68
2022-12-25T17:36:45.168Z,7.65
2022-12-25T17:41:49.997Z,7.63
2022-12-25T17:46:51.780Z,7.61
2022-12-25T17:51:53.967Z,7.62
2022-12-25T17:56:55.637Z,7.66
2022-12-25T18:01:57.676Z,7.60
2022-12-25T18:06:59.511Z,7.62
2022-12-25T18:12:01.240Z,7.62
2022-12-25T18:17:02.985Z,7.57
2022-12-25T18:22:04.786Z,7.33
2022-12-25T18:27:07.027Z,7.09
2022-12-25T18:32:08.801Z,7.07
2022-12-25T18:37:10.625Z,7.07
2022-12-25T18:42:31.341Z,7.07
2022-12-25T18:47:33.579Z,7.06
2022-12-25T18:52:48.335Z,7.08
2022-12-25T18:57:53.155Z,7.19
2022-12-25T19:02:58.419Z,7.28
2022-12-25T19:08:00.090Z,7.31
2022-12-25T19:13:01.867Z,7.37
2022-12-25T19:18:04.039Z,7.35
2022-12-25T19:23:06.242Z,7.40
2022-12-25T19:28:07.857Z,7.53
2022-12-25T19:33:14.099Z,7.65
2022-12-25T19:38:20.281Z,7.76
2022-12-25T19:43:22.050Z,7.89
2022-12-25T19:48:24.458Z,7.99
2022-12-25T19:53:27.045Z,8.05
2022-12-25T19:58:29.781Z,8.08
2022-12-25T20:03:40.179Z,8.14
2022-12-25T20:08:49.020Z,8.19
2022-12-25T20:13:51.059Z,8.17
2022-12-25T20:18:53.501Z,8.10
2022-12-25T20:23:56.307Z,8.00
2022-12-25T20:28:59.434Z,7.81
2022-12-25T20:34:06.336Z,7.70
2022-12-25T20:39:10.827Z,7.65
2022-12-25T20:44:13.609Z,7.58
2022-12-25T20:49:17.842Z,7.51
2022-12-25T20:54:19.485Z,7.48
2022-12-25T20:59:21.204Z,7.43
2022-12-25T21:04:23.286Z,7.33
2022-12-25T21:09:24.986Z,7.24
2022-12-25T21:14:29.453Z,7.33
2022-12-25T21:19:31.299Z,7.47
2022-12-25T21:24:32.929Z,7.55
2022-12-25T21:29:34.673Z,7.58
2022-12-25T21:34:36.603Z,7.57
2022-12-25T21:39:40.399Z,7.38
2022-12-25T21:44:43.207Z,7.09
2022-12-25T21:50:03.821Z,6.94
2022-12-25T21:55:05.962Z,7.00
2022-12-25T22:00:08.651Z,7.08
2022-12-25T22:05:30.235Z,7.18
2022-12-25T22:10:32.004Z,7.29
2022-12-25T22:15:52.989Z,7.34
2022-12-25T22:20:54.788Z,7.39
2022-12-25T22:25:56.460Z,7.42
2022-12-25T22:31:04.120Z,7.35
2022-12-25T22:36:08.281Z,7.23
2022-12-25T22:41:10.087Z,7.04
2022-12-25T22:46:11.822Z,6.79
2022-12-25T22:51:13.598Z,6.69
2022-12-25T22:56:15.661Z,6.73
2022-12-25T23:01:17.377Z,6.81
2022-12-25T23:06:19.071Z,6.82
2022-12-25T23:11:20.937Z,6.84
2022-12-25T23:16:23.419Z,6.83
2022-12-25T23:21:45.704Z,6.79
2022-12-25T23:26:47.523Z,6.65
2022-12-25T23:31:53.599Z,6.53
2022-12-25T23:36:55.487Z,6.45
2022-12-25T23:41:57.702Z,6.29
2022-12-25T23:46:59.641Z,6.23
2022-12-25T23:52:01.771Z,6.22
2022-12-25T23:57:36.898Z,6.19
